createdAt,value
2023-02-24T05:00:43.609Z,99.99
2023-02-24T05:01:43.524Z,99.99
2023-02-24T05:02:43.519Z,99.99
2023-02-24T05:03:43.590Z,99.99
2023-02-24T05:04:43.550Z,99.99
2023-02-24T05:05:43.528Z,99.99
2023-02-24T05:06:43.476Z,99.99
2023-02-24T05:07:43.457Z,99.99
2023-02-24T05:08:43.502Z,99.99
2023-02-24T05:09:43.416Z,99.99
2023-02-24T05:10:43.485Z,99.99
2023-02-24T05:11:43.386Z,99.99
2023-02-24T05:12:43.393Z,99.99
2023-02-24T05:13:50.391Z,99.99
2023-02-24T05:14:43.377Z,99.99
2023-02-24T05:15:43.408Z,99.99
2023-02-24T05:16:43.414Z,99.99
2023-02-24T05:17:43.327Z,99.99
2023-02-24T05:18:43.314Z,99.99
2023-02-24T05:19:43.284Z,99.99
2023-02-24T05:20:43.284Z,99.99
2023-02-24T05:21:43.453Z,99.99
2023-02-24T05:22:43.294Z,99.99
2023-02-24T05:23:43.255Z,99.99
2023-02-24T05:24:43.245Z,99.99
2023-02-24T05:25:43.318Z,99.99
2023-02-24T05:26:43.277Z,99.99
2023-02-24T05:27:43.965Z,99.99
2023-02-24T05:28:43.181Z,99.99
2023-02-24T05:29:43.155Z,99.99
2023-02-24T05:30:43.217Z,99.99
2023-02-24T05:31:43.288Z,99.99
2023-02-24T05:32:43.174Z,99.99
2023-02-24T05:33:43.150Z,99.99
2023-02-24T05:34:43.117Z,99.99
2023-02-24T05:35:43.093Z,99.99
2023-02-24T05:36:43.081Z,99.99
2023-02-24T05:37:43.065Z,99.99
2023-02-24T05:38:43.079Z,99.99
2023-02-24T05:39:43.098Z,99.99
2023-02-24T05:40:43.036Z,99.99
2023-02-24T05:41:42.996Z,99.99
2023-02-24T05:42:43.010Z,99.99
2023-02-24T05:43:42.966Z,99.99
2023-02-24T05:44:42.978Z,99.99
2023-02-24T05:45:43.027Z,99.99
2023-02-24T05:46:43.034Z,99.99
2023-02-24T05:47:42.944Z,99.99
2023-02-24T05:48:42.936Z,99.99
2023-02-24T05:49:42.933Z,99.99
2023-02-24T05:50:42.908Z,99.99
2023-02-24T05:51:42.904Z,99.99
2023-02-24T05:52:42.984Z,99.99
2023-02-24T05:53:42.918Z,99.99
2023-02-24T05:54:42.868Z,99.99
2023-02-24T05:55:42.831Z,99.99
2023-02-24T05:56:42.838Z,99.99
2023-02-24T05:57:42.838Z,99.99
2023-02-24T05:58:42.795Z,99.99
2023-02-24T05:59:42.752Z,99.99
2023-02-24T06:00:42.764Z,99.99
2023-02-24T06:01:42.809Z,99.99
2023-02-24T06:02:42.834Z,99.99
2023-02-24T06:03:42.757Z,99.99
2023-02-24T06:04:42.711Z,99.99
2023-02-24T06:05:42.706Z,99.99
2023-02-24T06:06:42.709Z,99.99
2023-02-24T06:07:42.664Z,99.99
2023-02-24T06:08:42.698Z,99.99
2023-02-24T06:09:42.681Z,99.99
2023-02-24T06:10:42.644Z,99.99
2023-02-24T06:11:42.744Z,99.99
2023-02-24T06:12:42.635Z,99.99
2023-02-24T06:13:42.603Z,99.99
2023-02-24T06:14:42.580Z,99.99
2023-02-24T06:15:42.578Z,99.99
2023-02-24T06:16:42.628Z,99.99
2023-02-24T06:17:42.549Z,99.99
2023-02-24T06:18:42.535Z,99.99
2023-02-24T06:19:42.496Z,99.99
2023-02-24T06:20:42.578Z,99.99
2023-02-24T06:21:42.477Z,99.99
2023-02-24T06:22:42.653Z,99.99
2023-02-24T06:23:42.459Z,99.99
2023-02-24T06:24:42.457Z,99.99
2023-02-24T06:25:42.414Z,99.99
2023-02-24T06:26:42.497Z,99.99
2023-02-24T06:27:42.392Z,99.99
2023-02-24T06:28:42.504Z,99.99
2023-02-24T06:29:42.388Z,99.99
2023-02-24T06:30:42.515Z,99.99
2023-02-24T06:31:42.391Z,99.99
2023-02-24T06:32:42.670Z,99.99
2023-02-24T06:33:42.511Z,99.99
2023-02-24T06:34:42.325Z,99.99
2023-02-24T06:35:42.310Z,99.99
2023-02-24T06:36:42.309Z,99.99
2023-02-24T06:37:42.265Z,99.99
2023-02-24T06:38:42.356Z,99.99
2023-02-24T06:39:42.255Z,99.99
2023-02-24T06:40:42.247Z,99.99
2023-02-24T06:41:42.226Z,99.99
2023-02-24T06:42:42.244Z,99.99
2023-02-24T06:43:42.193Z,99.99
2023-02-24T06:44:42.298Z,99.99
2023-02-24T06:45:42.246Z,99.99
2023-02-24T06:46:42.192Z,99.99
2023-02-24T06:47:42.147Z,99.99
2023-02-24T06:48:42.188Z,99.99
2023-02-24T06:49:42.131Z,99.99
2023-02-24T06:50:42.282Z,99.99
2023-02-24T06:51:42.084Z,99.99
2023-02-24T06:52:42.107Z,99.99
2023-02-24T06:53:42.067Z,99.99
2023-02-24T06:54:42.075Z,99.99
2023-02-24T06:55:42.069Z,99.99
2023-02-24T06:56:42.077Z,99.99
2023-02-24T06:57:42.005Z,99.99
2023-02-24T06:58:42.045Z,99.99
2023-02-24T06:59:42.023Z,99.99
2023-02-24T07:00:42.150Z,99.99
2023-02-24T07:01:42.059Z,99.99
2023-02-24T07:02:41.973Z,99.99
2023-02-24T07:03:41.942Z,99.99
2023-02-24T07:04:42.065Z,99.99
2023-02-24T07:05:42.129Z,99.99
2023-02-24T07:06:41.919Z,99.99
2023-02-24T07:07:41.892Z,99.99
2023-02-24T07:08:41.910Z,99.99
2023-02-24T07:09:41.866Z,99.99
2023-02-24T07:10:41.910Z,99.99
2023-02-24T07:11:41.915Z,99.99
2023-02-24T07:12:41.839Z,99.99
2023-02-24T07:13:41.807Z,99.99
2023-02-24T07:14:41.822Z,99.99
2023-02-24T07:15:41.875Z,99.99
2023-02-24T07:16:41.901Z,99.99
2023-02-24T07:17:41.772Z,99.99
2023-02-24T07:18:41.773Z,99.99
2023-02-24T07:19:41.732Z,99.99
2023-02-24T07:20:41.768Z,99.99
2023-02-24T07:21:41.703Z,99.99
2023-02-24T07:22:41.706Z,99.99
2023-02-24T07:23:41.684Z,99.99
2023-02-24T07:24:41.707Z,99.99
2023-02-24T07:25:41.962Z,99.99
2023-02-24T07:26:41.693Z,99.99
2023-02-24T07:27:41.633Z,99.99
2023-02-24T07:28:41.632Z,99.99
2023-02-24T07:29:41.618Z,99.99
2023-02-24T07:30:41.713Z,99.99
2023-02-24T07:31:42.359Z,99.99
2023-02-24T07:32:41.648Z,99.99
2023-02-24T07:33:41.575Z,99.99
2023-02-24T07:34:41.550Z,99.99
2023-02-24T07:35:41.732Z,99.99
2023-02-24T07:36:41.527Z,99.99
2023-02-24T07:37:41.923Z,99.99
2023-02-24T07:38:41.551Z,99.99
2023-02-24T07:39:41.459Z,99.99
2023-02-24T07:40:41.473Z,99.99
2023-02-24T07:41:41.428Z,99.99
2023-02-24T07:42:41.449Z,99.99
2023-02-24T07:43:41.477Z,99.99
2023-02-24T07:44:41.438Z,99.99
2023-02-24T07:45:41.421Z,99.99
2023-02-24T07:46:41.396Z,99.99
2023-02-24T07:47:41.357Z,99.99
2023-02-24T07:48:41.367Z,99.99
2023-02-24T07:49:42.085Z,99.99
2023-02-24T07:50:41.323Z,99.99
2023-02-24T07:51:41.326Z,99.99
2023-02-24T07:52:41.347Z,99.99
2023-02-24T07:53:41.275Z,99.99
2023-02-24T07:54:41.297Z,99.99
2023-02-24T07:55:41.354Z,99.99
2023-02-24T07:56:41.261Z,99.99
2023-02-24T07:57:41.224Z,99.99
2023-02-24T07:58:41.222Z,99.99
2023-02-24T07:59:41.217Z,99.99
2023-02-24T08:00:41.322Z,99.99
2023-02-24T08:01:41.177Z,99.99
2023-02-24T08:02:41.281Z,99.99
2023-02-24T08:03:41.153Z,99.99
2023-02-24T08:04:41.153Z,99.99
2023-02-24T08:05:41.344Z,99.99
2023-02-24T08:06:41.138Z,99.99
2023-02-24T08:07:41.219Z,99.99
2023-02-24T08:08:41.136Z,99.99
2023-02-24T08:09:41.080Z,99.99
2023-02-24T08:10:41.081Z,99.99
2023-02-24T08:11:41.209Z,99.99
2023-02-24T08:12:41.097Z,99.99
2023-02-24T08:13:41.072Z,99.99
2023-02-24T08:14:41.029Z,99.99
2023-02-24T08:15:41.023Z,99.99
2023-02-24T08:16:40.997Z,99.99
2023-02-24T08:17:41.008Z,99.99
2023-02-24T08:18:40.989Z,99.99
2023-02-24T08:19:40.949Z,99.99
2023-02-24T08:20:40.957Z,99.99
2023-02-24T08:21:40.917Z,99.99
2023-02-24T08:22:40.935Z,99.99
2023-02-24T08:23:41.868Z,99.99
2023-02-24T08:24:40.890Z,99.99
2023-02-24T08:25:40.856Z,99.99
2023-02-24T08:26:40.928Z,99.99
2023-02-24T08:27:40.856Z,99.99
2023-02-24T08:28:40.849Z,99.99
2023-02-24T08:29:40.986Z,99.99
2023-02-24T08:30:40.986Z,99.99
2023-02-24T08:31:40.896Z,99.99
2023-02-24T08:32:40.902Z,99.99
2023-02-24T08:33:40.766Z,99.99
2023-02-24T08:34:40.781Z,99.99
2023-02-24T08:35:40.845Z,99.99
2023-02-24T08:36:40.724Z,99.99
2023-02-24T08:37:40.745Z,99.99
2023-02-24T08:38:40.696Z,99.99
2023-02-24T08:39:40.703Z,99.99
2023-02-24T08:40:40.694Z,99.99
2023-02-24T08:41:40.673Z,99.99
2023-02-24T08:42:40.651Z,99.99
2023-02-24T08:43:40.659Z,99.99
2023-02-24T08:44:42.408Z,99.99
2023-02-24T08:45:40.697Z,99.99
2023-02-24T08:46:40.645Z,99.99
2023-02-24T08:47:40.625Z,99.99
2023-02-24T08:48:40.569Z,99.99
2023-02-24T08:49:40.582Z,99.99
2023-02-24T08:50:40.578Z,99.99
2023-02-24T08:51:40.594Z,99.99
2023-02-24T08:52:40.545Z,99.99
2023-02-24T08:53:40.735Z,99.99
2023-02-24T08:54:40.498Z,99.99
2023-02-24T08:55:40.587Z,99.99
2023-02-24T08:56:40.472Z,99.99
2023-02-24T08:57:40.503Z,99.99
2023-02-24T08:58:40.474Z,99.99
2023-02-24T08:59:40.475Z,99.99
2023-02-24T09:00:40.524Z,99.99
2023-02-24T09:01:40.481Z,99.99
2023-02-24T09:02:40.430Z,99.99
2023-02-24T09:03:40.436Z,99.99
2023-02-24T09:04:40.476Z,99.99
2023-02-24T09:05:40.377Z,99.99
2023-02-24T09:06:40.396Z,99.99
2023-02-24T09:07:40.358Z,99.99
2023-02-24T09:08:40.323Z,99.99
2023-02-24T09:09:40.336Z,99.99
2023-02-24T09:10:40.319Z,99.99
2023-02-24T09:11:40.400Z,99.99
2023-02-24T09:12:40.420Z,99.99
2023-02-24T09:13:40.327Z,99.99
2023-02-24T09:14:40.253Z,99.99
2023-02-24T09:15:40.251Z,99.99
2023-02-24T09:16:40.303Z,99.99
2023-02-24T09:17:40.327Z,99.99
2023-02-24T09:18:40.222Z,99.99
2023-02-24T09:19:40.227Z,99.99
2023-02-24T09:20:40.184Z,99.99
2023-02-24T09:21:40.470Z,99.99
2023-02-24T09:22:40.167Z,99.99
2023-02-24T09:23:40.157Z,99.99
2023-02-24T09:24:40.117Z,99.99
2023-02-24T09:25:40.132Z,99.99
2023-02-24T09:26:40.096Z,99.99
2023-02-24T09:27:40.180Z,99.99
2023-02-24T09:28:40.077Z,99.99
2023-02-24T09:29:40.083Z,99.99
2023-02-24T09:30:40.083Z,99.99
2023-02-24T09:31:40.209Z,99.99
2023-02-24T09:32:40.281Z,99.99
2023-02-24T09:33:40.086Z,99.49
2023-02-24T09:34:39.991Z,99.28
2023-02-24T09:35:40.015Z,99.13
2023-02-24T09:36:42.329Z,97.96
2023-02-24T09:37:40.012Z,97.14
2023-02-24T09:38:39.938Z,95.97
2023-02-24T09:39:40.286Z,95.25
2023-02-24T09:40:39.917Z,95.15
2023-02-24T09:41:39.918Z,94.59
2023-02-24T09:42:39.918Z,94.08
2023-02-24T09:43:39.903Z,93.32
2023-02-24T09:44:39.867Z,92.30
2023-02-24T09:45:40.051Z,91.95
2023-02-24T09:46:39.874Z,90.11
2023-02-24T09:47:40.338Z,89.86
2023-02-24T09:48:39.831Z,88.74
2023-02-24T09:49:40.044Z,88.23
2023-02-24T09:51:01.476Z,87.92
2023-02-24T09:51:40.923Z,88.08
2023-02-24T09:52:39.921Z,87.16
2023-02-24T09:53:41.593Z,87.06
2023-02-24T09:54:39.723Z,87.26
2023-02-24T09:55:39.736Z,87.23
2023-02-24T09:56:39.762Z,86.82
2023-02-24T09:57:39.788Z,86.10
2023-02-24T09:58:43.922Z,85.89
2023-02-24T09:59:39.681Z,85.79
2023-02-24T10:00:39.932Z,85.79
2023-02-24T10:01:39.701Z,85.59
2023-02-24T10:02:39.684Z,85.59
2023-02-24T10:03:39.642Z,86.00
2023-02-24T10:04:39.632Z,85.79
2023-02-24T10:05:39.613Z,85.89
2023-02-24T10:06:39.610Z,85.79
2023-02-24T10:07:39.580Z,86.04
2023-02-24T10:08:39.540Z,86.14
2023-02-24T10:09:39.552Z,85.83
2023-02-24T10:10:39.560Z,86.55
2023-02-24T10:11:39.520Z,86.90
2023-02-24T10:12:39.484Z,87.30
2023-02-24T10:13:39.500Z,87.61
2023-02-24T10:14:43.790Z,87.61
2023-02-24T10:15:39.468Z,88.06
2023-02-24T10:16:39.570Z,88.17
2023-02-24T10:17:39.449Z,88.62
2023-02-24T10:18:39.402Z,89.33
2023-02-24T10:19:39.429Z,89.37
2023-02-24T10:20:39.686Z,89.89
2023-02-24T10:21:39.408Z,90.19
2023-02-24T10:22:39.409Z,90.70
2023-02-24T10:23:39.500Z,90.91
2023-02-24T10:24:39.330Z,90.81
2023-02-24T10:25:39.345Z,90.30
2023-02-24T10:26:41.637Z,90.09
2023-02-24T10:27:39.341Z,89.94
2023-02-24T10:28:39.314Z,89.64
2023-02-24T10:29:39.289Z,89.18
2023-02-24T10:30:39.417Z,88.78
2023-02-24T10:31:39.437Z,88.06
2023-02-24T10:32:39.294Z,88.06
2023-02-24T10:33:39.764Z,87.96
2023-02-24T10:34:39.206Z,87.45
2023-02-24T10:35:39.202Z,87.35
2023-02-24T10:36:39.183Z,87.65
2023-02-24T10:37:39.237Z,87.65
2023-02-24T10:38:39.140Z,87.04
2023-02-24T10:39:39.159Z,87.65
2023-02-24T10:40:39.129Z,87.51
2023-02-24T10:41:39.199Z,86.79
2023-02-24T10:42:39.127Z,86.90
2023-02-24T10:43:39.132Z,86.59
2023-02-24T10:44:39.086Z,86.18
2023-02-24T10:45:39.070Z,86.24
2023-02-24T10:46:41.896Z,85.63
2023-02-24T10:47:39.066Z,85.53
2023-02-24T10:48:41.699Z,85.08
2023-02-24T10:49:39.027Z,84.81
2023-02-24T10:50:43.982Z,85.18
2023-02-24T10:51:39.996Z,85.38
2023-02-24T10:52:38.951Z,85.08
2023-02-24T10:53:39.274Z,85.28
2023-02-24T10:54:38.945Z,84.91
2023-02-24T10:55:39.028Z,84.61
2023-02-24T10:56:38.906Z,85.16
2023-02-24T10:57:47.473Z,85.88
2023-02-24T10:58:39.863Z,86.38
2023-02-24T10:59:38.899Z,86.69
2023-02-24T11:00:38.846Z,86.79
2023-02-24T11:01:38.931Z,86.90
2023-02-24T11:02:38.972Z,86.69
2023-02-24T11:03:38.884Z,86.38
2023-02-24T11:04:38.852Z,86.73
2023-02-24T11:05:38.963Z,87.14
2023-02-24T11:06:38.782Z,87.55
2023-02-24T11:07:38.753Z,87.65
2023-02-24T11:08:38.736Z,87.76
2023-02-24T11:09:38.744Z,87.76
2023-02-24T11:10:38.702Z,87.45
2023-02-24T11:11:38.809Z,87.35
2023-02-24T11:12:38.667Z,87.65
2023-02-24T11:14:33.724Z,87.55
2023-02-24T11:15:34.524Z,87.45
2023-02-24T11:16:36.444Z,87.24
2023-02-24T11:17:33.739Z,86.63
2023-02-24T11:18:33.678Z,86.73
2023-02-24T11:19:33.640Z,87.18
2023-02-24T11:20:46.435Z,87.49
2023-02-24T11:21:34.604Z,87.85
2023-02-24T11:22:33.641Z,87.65
2023-02-24T11:23:33.625Z,87.45
2023-02-24T11:24:33.587Z,87.24
2023-02-24T11:25:33.603Z,87.45
2023-02-24T11:26:33.544Z,87.35
2023-02-24T11:27:33.524Z,87.45
2023-02-24T11:28:33.524Z,87.24
2023-02-24T11:29:33.492Z,86.94
2023-02-24T11:30:33.510Z,86.83
2023-02-24T11:31:33.647Z,87.59
2023-02-24T11:32:33.635Z,87.76
2023-02-24T11:33:33.451Z,87.55
2023-02-24T11:34:33.460Z,87.79
2023-02-24T11:35:33.420Z,87.70
2023-02-24T11:36:33.459Z,88.00
2023-02-24T11:37:33.504Z,88.20
2023-02-24T11:38:33.412Z,88.62
2023-02-24T11:39:33.375Z,88.51
2023-02-24T11:40:33.388Z,88.20
2023-02-24T11:41:33.347Z,88.20
2023-02-24T11:42:33.343Z,88.45
2023-02-24T11:43:33.345Z,88.86
2023-02-24T11:44:33.331Z,89.21
2023-02-24T11:45:33.306Z,89.83
2023-02-24T11:46:33.348Z,90.23
2023-02-24T11:47:33.262Z,90.13
2023-02-24T11:48:33.308Z,90.23
2023-02-24T11:49:33.275Z,90.34
2023-02-24T11:50:33.252Z,90.95
2023-02-24T11:51:33.219Z,90.95
2023-02-24T11:52:33.231Z,90.95
2023-02-24T11:53:33.190Z,91.05
2023-02-24T11:54:33.243Z,91.16
2023-02-24T11:55:33.153Z,91.26
2023-02-24T11:56:33.160Z,91.50
2023-02-24T11:57:33.132Z,91.71
2023-02-24T11:58:33.212Z,91.91
2023-02-24T11:59:33.140Z,92.12
2023-02-24T12:00:33.161Z,92.22
2023-02-24T12:01:33.107Z,92.02
2023-02-24T12:02:33.105Z,92.02
2023-02-24T12:03:33.049Z,91.71
2023-02-24T12:04:33.069Z,91.50
2023-02-24T12:05:33.162Z,91.46
2023-02-24T12:06:33.063Z,91.16
2023-02-24T12:07:33.003Z,90.54
2023-02-24T12:08:33.019Z,90.19
2023-02-24T12:09:32.984Z,89.68
2023-02-24T12:10:32.988Z,89.17
2023-02-24T12:11:33.001Z,89.12
2023-02-24T12:12:32.980Z,88.51
2023-02-24T12:13:32.920Z,87.35
2023-02-24T12:14:32.923Z,86.73
2023-02-24T12:15:32.906Z,86.29
2023-02-24T12:16:32.962Z,85.88
2023-02-24T12:17:32.951Z,85.77
2023-02-24T12:18:32.878Z,85.32
2023-02-24T12:19:32.848Z,85.26
2023-02-24T12:20:32.865Z,85.47
2023-02-24T12:21:32.818Z,85.36
2023-02-24T12:22:32.917Z,85.57
2023-02-24T12:23:32.840Z,85.77
2023-02-24T12:24:32.850Z,85.77
2023-02-24T12:25:32.760Z,85.88
2023-02-24T12:26:32.781Z,85.67
2023-02-24T12:27:32.737Z,85.81
2023-02-24T12:28:32.754Z,86.02
2023-02-24T12:29:32.778Z,86.32
2023-02-24T12:30:32.741Z,86.32
2023-02-24T12:31:32.700Z,86.63
2023-02-24T12:32:32.788Z,86.73
2023-02-24T12:33:32.712Z,86.73
2023-02-24T12:34:32.742Z,86.63
2023-02-24T12:35:32.963Z,86.32
2023-02-24T12:36:32.640Z,86.22
2023-02-24T12:37:32.631Z,85.97
2023-02-24T12:38:32.641Z,85.42
2023-02-24T12:39:32.610Z,84.16
2023-02-24T12:40:32.578Z,83.95
2023-02-24T12:41:32.640Z,83.10
2023-02-24T12:42:32.558Z,82.59
2023-02-24T12:43:32.525Z,81.94
2023-02-24T12:44:32.548Z,81.84
2023-02-24T12:45:32.533Z,80.78
2023-02-24T12:46:32.544Z,80.54
2023-02-24T12:47:32.575Z,80.19
2023-02-24T12:48:32.488Z,79.34
2023-02-24T12:49:32.465Z,78.53
2023-02-24T12:50:32.461Z,78.02
2023-02-24T12:51:32.423Z,77.71
2023-02-24T12:52:32.420Z,77.51
2023-02-24T12:53:32.433Z,77.61
2023-02-24T12:54:32.393Z,77.71
2023-02-24T12:55:32.424Z,78.46
2023-02-24T12:56:32.365Z,78.77
2023-02-24T12:57:32.359Z,78.80
2023-02-24T12:58:32.396Z,79.55
2023-02-24T12:59:32.333Z,80.16
2023-02-24T13:00:32.383Z,80.57
2023-02-24T13:01:32.419Z,80.16
2023-02-24T13:02:32.309Z,80.27
2023-02-24T13:03:32.286Z,80.37
2023-02-24T13:04:32.277Z,80.68
2023-02-24T13:05:32.286Z,80.47
2023-02-24T13:06:32.244Z,80.47
2023-02-24T13:07:32.212Z,80.98
2023-02-24T13:08:32.216Z,81.23
2023-02-24T13:09:32.185Z,81.43
2023-02-24T13:10:32.242Z,81.63
2023-02-24T13:11:32.169Z,81.53
2023-02-24T13:12:32.164Z,81.43
2023-02-24T13:13:32.183Z,81.32
2023-02-24T13:14:32.114Z,81.02
2023-02-24T13:15:32.132Z,80.91
2023-02-24T13:16:32.224Z,81.12
2023-02-24T13:17:32.110Z,81.05
2023-02-24T13:18:32.071Z,81.46
2023-02-24T13:19:32.075Z,81.57
2023-02-24T13:20:32.070Z,81.87
2023-02-24T13:21:32.047Z,81.57
2023-02-24T13:22:32.004Z,81.87
2023-02-24T13:23:32.001Z,81.87
2023-02-24T13:24:31.969Z,82.08
2023-02-24T13:25:32.019Z,81.67
2023-02-24T13:26:31.969Z,81.32
2023-02-24T13:27:31.958Z,81.43
2023-02-24T13:28:31.927Z,81.73
2023-02-24T13:29:31.960Z,81.63
2023-02-24T13:30:32.155Z,81.23
2023-02-24T13:31:31.947Z,81.43
2023-02-24T13:32:32.017Z,81.53
2023-02-24T13:33:31.879Z,81.32
2023-02-24T13:34:31.844Z,81.12
2023-02-24T13:35:31.852Z,81.02
2023-02-24T13:36:31.869Z,80.82
2023-02-24T13:37:31.831Z,80.51
2023-02-24T13:38:31.790Z,80.30
2023-02-24T13:39:31.827Z,80.16
2023-02-24T13:40:31.777Z,80.27
2023-02-24T13:41:31.779Z,80.51
2023-02-24T13:42:31.810Z,80.82
2023-02-24T13:43:31.739Z,80.71
2023-02-24T13:44:31.711Z,80.75
2023-02-24T13:45:31.719Z,80.96
2023-02-24T13:46:31.702Z,81.57
2023-02-24T13:47:31.684Z,81.57
2023-02-24T13:48:31.831Z,81.67
2023-02-24T13:49:31.713Z,81.77
2023-02-24T13:50:31.664Z,81.98
2023-02-24T13:51:31.647Z,82.08
2023-02-24T13:52:31.601Z,82.53
2023-02-24T13:53:31.633Z,82.93
2023-02-24T13:54:31.671Z,83.28
2023-02-24T13:55:31.582Z,83.59
2023-02-24T13:56:31.560Z,83.69
2023-02-24T13:57:31.561Z,84.00
2023-02-24T13:58:31.527Z,84.00
2023-02-24T13:59:31.528Z,84.20
2023-02-24T14:00:31.601Z,84.30
2023-02-24T14:01:31.567Z,84.30
2023-02-24T14:02:31.533Z,84.50
2023-02-24T14:03:31.508Z,84.50
2023-02-24T14:04:31.460Z,84.30
2023-02-24T14:05:31.475Z,84.41
2023-02-24T14:06:31.471Z,84.20
2023-02-24T14:07:31.536Z,84.16
2023-02-24T14:08:31.417Z,83.95
2023-02-24T14:09:31.408Z,83.75
2023-02-24T14:10:31.446Z,83.44
2023-02-24T14:11:31.467Z,83.54
2023-02-24T14:12:31.346Z,83.75
2023-02-24T14:13:31.367Z,83.65
2023-02-24T14:14:31.317Z,83.44
2023-02-24T14:15:31.353Z,83.54
2023-02-24T14:16:31.385Z,83.44
2023-02-24T14:17:31.312Z,82.89
2023-02-24T14:18:31.274Z,82.63
2023-02-24T14:19:31.331Z,82.73
2023-02-24T14:20:31.264Z,82.53
2023-02-24T14:21:31.250Z,82.83
2023-02-24T14:22:31.297Z,83.04
2023-02-24T14:23:31.236Z,83.10
2023-02-24T14:24:31.195Z,83.00
2023-02-24T14:25:31.196Z,83.00
2023-02-24T14:26:31.188Z,82.79
2023-02-24T14:27:31.168Z,82.55
2023-02-24T14:28:32.888Z,82.35
2023-02-24T14:29:43.842Z,81.98
2023-02-24T14:30:32.153Z,82.49
2023-02-24T14:31:38.303Z,82.28
2023-02-24T14:32:31.313Z,82.39
2023-02-24T14:33:38.432Z,82.49
2023-02-24T14:34:38.099Z,82.59
2023-02-24T14:35:31.081Z,83.14
2023-02-24T14:36:31.027Z,83.24
2023-02-24T14:37:31.044Z,83.24
2023-02-24T14:38:31.028Z,83.34
2023-02-24T14:39:31.192Z,83.75
2023-02-24T14:40:30.976Z,83.54
2023-02-24T14:41:31.007Z,84.00
2023-02-24T14:42:31.008Z,84.20
2023-02-24T14:43:30.992Z,84.30
2023-02-24T14:44:30.917Z,84.81
2023-02-24T14:45:31.037Z,85.26
2023-02-24T14:46:30.979Z,85.57
2023-02-24T14:47:30.912Z,85.77
2023-02-24T14:48:30.879Z,85.77
2023-02-24T14:49:30.893Z,86.18
2023-02-24T14:50:30.838Z,86.53
2023-02-24T14:51:30.894Z,86.73
2023-02-24T14:52:30.852Z,86.73
2023-02-24T14:53:30.819Z,86.73
2023-02-24T14:54:30.787Z,86.63
2023-02-24T14:55:30.804Z,86.63
2023-02-24T14:56:30.839Z,86.94
2023-02-24T14:57:30.878Z,87.14
2023-02-24T14:58:30.744Z,87.14
2023-02-24T14:59:30.758Z,87.35
2023-02-24T15:00:30.955Z,87.55
2023-02-24T15:01:30.788Z,87.55
2023-02-24T15:02:30.712Z,87.45
2023-02-24T15:03:30.746Z,87.55
2023-02-24T15:04:30.685Z,87.65
2023-02-24T15:05:30.693Z,87.65
2023-02-24T15:06:30.706Z,87.65
2023-02-24T15:07:30.667Z,87.55
2023-02-24T15:08:30.614Z,87.65
2023-02-24T15:09:30.630Z,87.96
2023-02-24T15:10:30.744Z,88.26
2023-02-24T15:11:30.593Z,88.68
2023-02-24T15:12:30.574Z,88.88
2023-02-24T15:13:30.581Z,89.29
2023-02-24T15:14:30.542Z,89.18
2023-02-24T15:15:30.568Z,88.88
2023-02-24T15:16:30.603Z,88.57
2023-02-24T15:17:30.527Z,89.29
2023-02-24T15:18:30.516Z,90.11
2023-02-24T15:19:30.513Z,90.86
2023-02-24T15:20:30.496Z,90.97
2023-02-24T15:21:30.495Z,91.27
2023-02-24T15:22:30.505Z,91.58
2023-02-24T15:23:30.427Z,91.17
2023-02-24T15:24:30.427Z,90.97
2023-02-24T15:25:41.955Z,90.97
2023-02-24T15:26:31.533Z,90.45
2023-02-24T15:27:30.397Z,91.31
2023-02-24T15:28:30.389Z,91.11
2023-02-24T15:29:30.375Z,90.70
2023-02-24T15:30:30.414Z,91.11
2023-02-24T15:31:30.494Z,91.11
2023-02-24T15:32:30.545Z,91.31
2023-02-24T15:33:30.316Z,91.73
2023-02-24T15:34:30.324Z,91.52
2023-02-24T15:35:30.285Z,91.87
2023-02-24T15:36:30.323Z,91.56
2023-02-24T15:37:30.330Z,91.97
2023-02-24T15:38:30.230Z,91.97
2023-02-24T15:39:30.249Z,92.49
2023-02-24T15:40:30.239Z,92.79
2023-02-24T15:41:30.239Z,92.79
2023-02-24T15:42:30.257Z,93.20
2023-02-24T15:43:30.211Z,93.41
2023-02-24T15:44:30.199Z,93.20
2023-02-24T15:45:30.183Z,93.41
2023-02-24T15:46:30.183Z,93.41
2023-02-24T15:47:30.170Z,92.83
2023-02-24T15:48:31.388Z,93.25
2023-02-24T15:49:30.151Z,93.35
2023-02-24T15:50:30.076Z,93.55
2023-02-24T15:51:30.088Z,93.66
2023-02-24T15:52:30.043Z,93.76
2023-02-24T15:53:30.066Z,94.07
2023-02-24T15:54:30.069Z,94.68
2023-02-24T15:55:30.049Z,94.99
2023-02-24T15:56:29.990Z,94.89
2023-02-24T15:57:30.030Z,95.09
2023-02-24T15:58:29.978Z,95.09
2023-02-24T15:59:30.006Z,95.29
2023-02-24T16:00:30.057Z,95.29
2023-02-24T16:01:29.961Z,95.50
2023-02-24T16:02:29.923Z,95.29
2023-02-24T16:03:29.986Z,94.89
2023-02-24T16:04:29.898Z,94.78
2023-02-24T16:05:29.925Z,95.20
2023-02-24T16:06:29.875Z,95.81
2023-02-24T16:07:29.864Z,95.40
2023-02-24T16:08:29.914Z,95.81
2023-02-24T16:09:29.842Z,95.24
2023-02-24T16:10:29.843Z,95.24
2023-02-24T16:11:29.873Z,95.03
2023-02-24T16:12:29.810Z,95.65
2023-02-24T16:13:29.874Z,95.44
2023-02-24T16:14:29.770Z,95.44
2023-02-24T16:15:29.769Z,95.65
2023-02-24T16:16:29.774Z,96.37
2023-02-24T16:17:29.756Z,96.98
2023-02-24T16:18:29.760Z,97.08
2023-02-24T16:19:29.778Z,97.19
2023-02-24T16:20:29.681Z,97.08
2023-02-24T16:21:29.715Z,97.60
2023-02-24T16:22:29.695Z,97.80
2023-02-24T16:23:29.669Z,98.42
2023-02-24T16:24:29.702Z,99.28
2023-02-24T16:25:29.665Z,99.90
2023-02-24T16:26:29.610Z,99.99
2023-02-24T16:27:29.617Z,99.99
2023-02-24T16:28:29.597Z,99.99
2023-02-24T16:29:29.615Z,99.99
2023-02-24T16:30:29.739Z,99.99
2023-02-24T16:31:29.790Z,99.99
2023-02-24T16:32:29.739Z,99.99
2023-02-24T16:33:29.714Z,99.99
2023-02-24T16:34:29.511Z,99.99
2023-02-24T16:35:29.546Z,99.99
2023-02-24T16:36:29.507Z,99.99
2023-02-24T16:37:29.559Z,99.99
2023-02-24T16:38:29.448Z,99.99
2023-02-24T16:39:29.448Z,99.99
2023-02-24T16:40:29.447Z,99.99
2023-02-24T16:41:29.495Z,99.99
2023-02-24T16:42:29.549Z,99.99
2023-02-24T16:43:29.486Z,99.99
2023-02-24T16:44:29.401Z,99.99
2023-02-24T16:45:29.418Z,99.99
2023-02-24T16:46:29.455Z,99.99
2023-02-24T16:47:29.376Z,99.99
2023-02-24T16:48:29.399Z,99.99
2023-02-24T16:49:29.351Z,99.99
2023-02-24T16:50:29.293Z,99.99
2023-02-24T16:51:29.314Z,99.99
2023-02-24T16:52:29.301Z,99.99
2023-02-24T16:53:29.348Z,99.99
2023-02-24T16:54:29.532Z,99.99
2023-02-24T16:55:29.269Z,99.99
2023-02-24T16:56:29.247Z,99.99
2023-02-24T16:57:29.251Z,99.99
2023-02-24T16:58:29.310Z,99.99
2023-02-24T16:59:29.267Z,99.99
2023-02-24T17:00:29.623Z,99.99
2023-02-24T17:01:29.271Z,99.99
2023-02-24T17:02:29.146Z,99.99
2023-02-24T17:03:29.183Z,99.99
2023-02-24T17:04:29.173Z,99.99
2023-02-24T17:05:29.141Z,99.99
2023-02-24T17:06:29.294Z,99.99
2023-02-24T17:07:29.093Z,99.99
2023-02-24T17:08:29.078Z,99.99
2023-02-24T17:09:29.124Z,99.99
2023-02-24T17:10:29.042Z,99.99
2023-02-24T17:11:29.054Z,99.99
2023-02-24T17:12:29.124Z,99.99
2023-02-24T17:13:29.056Z,99.99
2023-02-24T17:14:28.993Z,99.99
2023-02-24T17:15:29.004Z,99.99
2023-02-24T17:16:29.020Z,99.99
2023-02-24T17:17:28.961Z,99.99
2023-02-24T17:18:29.082Z,99.99
2023-02-24T17:19:29.030Z,99.99
2023-02-24T17:20:28.948Z,99.99
2023-02-24T17:21:28.917Z,99.99
2023-02-24T17:22:28.905Z,99.99
2023-02-24T17:23:28.940Z,99.99
2023-02-24T17:24:29.029Z,99.99
2023-02-24T17:25:28.844Z,99.99
2023-02-24T17:26:28.855Z,99.99
2023-02-24T17:27:28.832Z,99.99
2023-02-24T17:28:28.874Z,99.99
2023-02-24T17:29:28.929Z,99.99
2023-02-24T17:30:28.817Z,99.99
2023-02-24T17:31:28.879Z,99.99
2023-02-24T17:32:28.869Z,99.99
2023-02-24T17:33:28.746Z,99.99
2023-02-24T17:34:28.762Z,99.99
2023-02-24T17:35:28.908Z,99.99
2023-02-24T17:36:28.735Z,99.99
2023-02-24T17:37:28.767Z,99.99
2023-02-24T17:38:28.688Z,99.99
2023-02-24T17:39:28.698Z,99.99
2023-02-24T17:40:28.666Z,99.99
2023-02-24T17:41:28.713Z,99.99
2023-02-24T17:42:28.646Z,99.99
2023-02-24T17:43:28.614Z,99.99
2023-02-24T17:44:28.633Z,99.99
2023-02-24T17:45:28.574Z,99.99
2023-02-24T17:46:28.636Z,99.99
2023-02-24T17:47:28.624Z,99.99
2023-02-24T17:48:28.593Z,99.99
2023-02-24T17:49:28.540Z,99.99
2023-02-24T17:50:28.531Z,99.99
2023-02-24T17:51:28.532Z,99.99
2023-02-24T17:52:28.538Z,99.99
2023-02-24T17:53:28.587Z,99.99